Strona główna
METAR-TAF:

METAR-TAF

Lotnisko :

Port lotniczy Zadar

Zadar, Chorwacja

Szerokość geograficzna: 44-06N, Długość geograficzna: 015-21E, wysokość: 82 m

Aktualna obserwacja pogody

Raport powstał 17 minut temu, godzina 02:00 UTC
Wiatr 8 kt od wschodnio-północny wschód
Temperatura 13°C
Wilgotność 35%
Ciśnienie 1022 hPa
Widzialność 10 km lub więcej
Brak chmur poniżej 1500 m i brak chmur cumulonimbus

METAR: LDZD 060200Z 07008KT CAVOK 13/M02 Q1022

czas: 04:17 (02:17 UTC)

Prognoza

Raport powstał 2 godziny i 52 minut temu, godzina 23:25 UTC
Prognoza ważna od 06 godzina 00 UTC do 07 godzina 00 UTC
Wiatr 14 kt od wschodnio-północny wschód
Widzialność 10 km lub więcej
Brak chmur poniżej 1500 m i brak chmur cumulonimbus
Stopniowe zmiany
od 06 godzina 09 UTC do 06 godzina 11 UTC
Wiatr 10 kt od północny zachód
Stopniowe zmiany
od 06 godzina 16 UTC do 06 godzina 19 UTC
Wiatr 8 kt od wschodnio-północny wschód

TAF: LDZD 052325Z 0600/0700 06014KT CAVOK TX22/0612Z TN13/0605Z BECMG 0609/0611 31010KT BECMG 0616/0619 06008KT

Obserwacja i prognoza pogody dla ponad 4000 lotnisk (raport METAR i TAF).

Dostępne stacje oznaczono żółtymi i czerwonymi punktami na mapie.

Najedź kursorem aby zobaczyć nazwę stacji.

Kliknij aby zobaczyć obserwacje i prognozy pogody.

Aby zmienić mapę: kliknij na zielony przycisk z czarnym krzyżykiem, aby powiększyć; na zielony przycisk z myślnikiem, aby pomniejszyć; na zielone strzałki, aby przejść do map sąsiednich.


METAR-TAF: